sensor_id;sensor_type;location;lat;lon;timestamp;temperature;humidity
41344;DHT22;27089;50.022;7.604;2022-11-25T00:01:03;3.70;99.90
41344;DHT22;27089;50.022;7.604;2022-11-25T00:03:31;3.70;99.90
41344;DHT22;27089;50.022;7.604;2022-11-25T00:06:07;3.70;99.90
41344;DHT22;27089;50.022;7.604;2022-11-25T00:08:35;3.70;99.90
41344;DHT22;27089;50.022;7.604;2022-11-25T00:11:03;3.70;99.90
41344;DHT22;27089;50.022;7.604;2022-11-25T00:13:31;3.70;99.90
41344;DHT22;27089;50.022;7.604;2022-11-25T00:16:00;3.60;99.90
41344;DHT22;27089;50.022;7.604;2022-11-25T00:18:28;3.60;99.90
41344;DHT22;27089;50.022;7.604;2022-11-25T00:20:55;3.60;99.90
41344;DHT22;27089;50.022;7.604;2022-11-25T00:23:22;3.60;99.90
41344;DHT22;27089;50.022;7.604;2022-11-25T00:25:50;3.60;99.90
41344;DHT22;27089;50.022;7.604;2022-11-25T00:28:17;3.60;99.90
41344;DHT22;27089;50.022;7.604;2022-11-25T00:30:44;3.70;99.90
41344;DHT22;27089;50.022;7.604;2022-11-25T00:33:11;3.80;99.90
41344;DHT22;27089;50.022;7.604;2022-11-25T00:35:38;3.80;99.90
41344;DHT22;27089;50.022;7.604;2022-11-25T00:38:05;3.60;99.90
41344;DHT22;27089;50.022;7.604;2022-11-25T00:40:32;3.50;99.90
41344;DHT22;27089;50.022;7.604;2022-11-25T00:43:00;3.40;99.90
41344;DHT22;27089;50.022;7.604;2022-11-25T00:45:44;3.40;99.90
41344;DHT22;27089;50.022;7.604;2022-11-25T00:48:11;3.40;99.90
41344;DHT22;27089;50.022;7.604;2022-11-25T00:50:38;3.40;99.90
41344;DHT22;27089;50.022;7.604;2022-11-25T00:53:05;3.50;99.90
41344;DHT22;27089;50.022;7.604;2022-11-25T00:55:32;3.40;99.90
41344;DHT22;27089;50.022;7.604;2022-11-25T00:58:20;3.40;99.90
41344;DHT22;27089;50.022;7.604;2022-11-25T01:00:47;3.40;99.90
41344;DHT22;27089;50.022;7.604;2022-11-25T01:03:14;3.50;99.90
41344;DHT22;27089;50.022;7.604;2022-11-25T01:05:41;3.50;99.90
41344;DHT22;27089;50.022;7.604;2022-11-25T01:08:08;3.50;99.90
41344;DHT22;27089;50.022;7.604;2022-11-25T01:10:35;3.50;99.90
41344;DHT22;27089;50.022;7.604;2022-11-25T01:13:02;3.50;99.90
41344;DHT22;27089;50.022;7.604;2022-11-25T01:15:30;3.50;99.90
41344;DHT22;27089;50.022;7.604;2022-11-25T01:17:57;3.50;99.90
41344;DHT22;27089;50.022;7.604;2022-11-25T01:20:24;3.60;99.90
41344;DHT22;27089;50.022;7.604;2022-11-25T01:22:51;3.50;99.90
41344;DHT22;27089;50.022;7.604;2022-11-25T01:25:18;3.50;99.90
41344;DHT22;27089;50.022;7.604;2022-11-25T01:27:45;3.60;99.90
41344;DHT22;27089;50.022;7.604;2022-11-25T01:30:13;3.60;99.90
41344;DHT22;27089;50.022;7.604;2022-11-25T01:32:41;3.70;99.90
41344;DHT22;27089;50.022;7.604;2022-11-25T01:35:09;3.80;99.90
41344;DHT22;27089;50.022;7.604;2022-11-25T01:37:36;3.80;99.90
41344;DHT22;27089;50.022;7.604;2022-11-25T01:40:03;3.80;99.90
41344;DHT22;27089;50.022;7.604;2022-11-25T01:42:31;3.80;99.90
41344;DHT22;27089;50.022;7.604;2022-11-25T01:45:31;3.70;99.90
41344;DHT22;27089;50.022;7.604;2022-11-25T01:48:04;3.70;99.90
41344;DHT22;27089;50.022;7.604;2022-11-25T01:50:35;3.80;99.90
41344;DHT22;27089;50.022;7.604;2022-11-25T01:53:05;3.90;99.90
41344;DHT22;27089;50.022;7.604;2022-11-25T01:55:35;4.20;99.90
41344;DHT22;27089;50.022;7.604;2022-11-25T01:58:07;4.40;99.90
41344;DHT22;27089;50.022;7.604;2022-11-25T02:00:35;4.50;99.90
41344;DHT22;27089;50.022;7.604;2022-11-25T02:03:05;4.50;99.90
41344;DHT22;27089;50.022;7.604;2022-11-25T02:05:37;4.60;99.90
41344;DHT22;27089;50.022;7.604;2022-11-25T02:08:06;4.70;99.90
41344;DHT22;27089;50.022;7.604;2022-11-25T02:10:34;4.80;99.90
41344;DHT22;27089;50.022;7.604;2022-11-25T02:13:02;4.90;99.90
41344;DHT22;27089;50.022;7.604;2022-11-25T02:15:30;5.00;99.90
41344;DHT22;27089;50.022;7.604;2022-11-25T02:17:59;5.10;99.90
41344;DHT22;27089;50.022;7.604;2022-11-25T02:20:28;5.20;99.90
41344;DHT22;27089;50.022;7.604;2022-11-25T02:22:59;5.30;99.90
41344;DHT22;27089;50.022;7.604;2022-11-25T02:25:33;5.30;99.90
41344;DHT22;27089;50.022;7.604;2022-11-25T02:28:02;5.40;99.90
41344;DHT22;27089;50.022;7.604;2022-11-25T02:30:30;5.40;99.90
41344;DHT22;27089;50.022;7.604;2022-11-25T02:32:58;5.50;99.90
41344;DHT22;27089;50.022;7.604;2022-11-25T02:35:29;5.50;99.90
41344;DHT22;27089;50.022;7.604;2022-11-25T02:38:00;5.50;99.90
41344;DHT22;27089;50.022;7.604;2022-11-25T02:40:28;5.60;99.90
41344;DHT22;27089;50.022;7.604;2022-11-25T02:42:58;5.60;99.90
41344;DHT22;27089;50.022;7.604;2022-11-25T02:45:32;5.70;99.90
41344;DHT22;27089;50.022;7.604;2022-11-25T02:48:01;5.80;99.90
41344;DHT22;27089;50.022;7.604;2022-11-25T02:50:28;5.90;99.90
41344;DHT22;27089;50.022;7.604;2022-11-25T02:52:55;6.00;99.90
41344;DHT22;27089;50.022;7.604;2022-11-25T02:55:21;6.10;99.90
41344;DHT22;27089;50.022;7.604;2022-11-25T02:57:48;6.20;99.90
41344;DHT22;27089;50.022;7.604;2022-11-25T03:00:18;6.20;99.90
41344;DHT22;27089;50.022;7.604;2022-11-25T03:02:45;6.30;99.90
41344;DHT22;27089;50.022;7.604;2022-11-25T03:05:12;6.30;99.90
41344;DHT22;27089;50.022;7.604;2022-11-25T03:07:39;6.40;99.90
41344;DHT22;27089;50.022;7.604;2022-11-25T03:10:07;6.40;99.90
41344;DHT22;27089;50.022;7.604;2022-11-25T03:12:34;6.40;99.90
41344;DHT22;27089;50.022;7.604;2022-11-25T03:15:00;6.40;99.90
41344;DHT22;27089;50.022;7.604;2022-11-25T03:17:29;6.40;99.90
41344;DHT22;27089;50.022;7.604;2022-11-25T03:19:56;6.50;99.90
41344;DHT22;27089;50.022;7.604;2022-11-25T03:22:23;6.50;99.90
41344;DHT22;27089;50.022;7.604;2022-11-25T03:24:50;6.50;99.90
41344;DHT22;27089;50.022;7.604;2022-11-25T03:27:16;6.50;99.90
41344;DHT22;27089;50.022;7.604;2022-11-25T03:29:43;6.50;99.90
41344;DHT22;27089;50.022;7.604;2022-11-25T03:32:10;6.50;99.90
41344;DHT22;27089;50.022;7.604;2022-11-25T03:34:39;6.50;99.90
41344;DHT22;27089;50.022;7.604;2022-11-25T03:37:06;6.50;99.90
41344;DHT22;27089;50.022;7.604;2022-11-25T03:39:33;6.50;99.90
41344;DHT22;27089;50.022;7.604;2022-11-25T03:42:00;6.50;99.90
41344;DHT22;27089;50.022;7.604;2022-11-25T03:44:27;6.40;99.90
41344;DHT22;27089;50.022;7.604;2022-11-25T03:46:54;6.40;99.90
41344;DHT22;27089;50.022;7.604;2022-11-25T03:49:21;6.50;99.90
41344;DHT22;27089;50.022;7.604;2022-11-25T03:51:50;6.50;99.90
41344;DHT22;27089;50.022;7.604;2022-11-25T03:54:17;6.50;99.90
41344;DHT22;27089;50.022;7.604;2022-11-25T03:56:44;6.60;99.90
41344;DHT22;27089;50.022;7.604;2022-11-25T03:59:11;6.60;99.90
41344;DHT22;27089;50.022;7.604;2022-11-25T04:01:38;6.60;99.90
41344;DHT22;27089;50.022;7.604;2022-11-25T04:04:05;6.70;99.90
41344;DHT22;27089;50.022;7.604;2022-11-25T04:06:32;6.80;99.90
41344;DHT22;27089;50.022;7.604;2022-11-25T04:09:00;6.80;99.90
41344;DHT22;27089;50.022;7.604;2022-11-25T04:11:27;6.80;99.90
41344;DHT22;27089;50.022;7.604;2022-11-25T04:14:08;6.90;99.90
41344;DHT22;27089;50.022;7.604;2022-11-25T04:16:35;6.90;99.90
41344;DHT22;27089;50.022;7.604;2022-11-25T04:19:02;6.90;99.90
41344;DHT22;27089;50.022;7.604;2022-11-25T04:21:29;6.90;99.90
41344;DHT22;27089;50.022;7.604;2022-11-25T04:23:56;7.00;99.90
41344;DHT22;27089;50.022;7.604;2022-11-25T04:26:24;7.00;99.90
41344;DHT22;27089;50.022;7.604;2022-11-25T04:28:51;7.00;99.90
41344;DHT22;27089;50.022;7.604;2022-11-25T04:31:19;7.10;99.90
41344;DHT22;27089;50.022;7.604;2022-11-25T04:33:46;7.10;99.90
41344;DHT22;27089;50.022;7.604;2022-11-25T04:36:13;7.10;99.90
41344;DHT22;27089;50.022;7.604;2022-11-25T04:38:40;7.10;99.90
41344;DHT22;27089;50.022;7.604;2022-11-25T04:41:08;7.20;99.90
41344;DHT22;27089;50.022;7.604;2022-11-25T04:43:36;7.20;99.90
41344;DHT22;27089;50.022;7.604;2022-11-25T04:46:04;7.20;99.90
41344;DHT22;27089;50.022;7.604;2022-11-25T04:48:31;7.30;99.90
41344;DHT22;27089;50.022;7.604;2022-11-25T04:50:58;7.30;99.90
41344;DHT22;27089;50.022;7.604;2022-11-25T04:53:25;7.30;99.90
41344;DHT22;27089;50.022;7.604;2022-11-25T04:55:52;7.30;99.90
41344;DHT22;27089;50.022;7.604;2022-11-25T04:58:19;7.40;99.90
41344;DHT22;27089;50.022;7.604;2022-11-25T05:01:01;7.40;99.90
41344;DHT22;27089;50.022;7.604;2022-11-25T05:03:28;7.40;99.90
41344;DHT22;27089;50.022;7.604;2022-11-25T05:05:55;7.40;99.90
41344;DHT22;27089;50.022;7.604;2022-11-25T05:08:22;7.30;99.90
41344;DHT22;27089;50.022;7.604;2022-11-25T05:10:49;7.30;99.90
41344;DHT22;27089;50.022;7.604;2022-11-25T05:13:16;7.30;99.90
41344;DHT22;27089;50.022;7.604;2022-11-25T05:15:42;7.30;99.90
41344;DHT22;27089;50.022;7.604;2022-11-25T05:18:11;7.30;99.90
41344;DHT22;27089;50.022;7.604;2022-11-25T05:20:38;7.20;99.90
41344;DHT22;27089;50.022;7.604;2022-11-25T05:23:05;7.20;99.90
41344;DHT22;27089;50.022;7.604;2022-11-25T05:25:32;7.20;99.90
41344;DHT22;27089;50.022;7.604;2022-11-25T05:27:59;7.20;99.90
41344;DHT22;27089;50.022;7.604;2022-11-25T05:30:26;7.20;99.90
41344;DHT22;27089;50.022;7.604;2022-11-25T05:32:53;7.20;99.90
41344;DHT22;27089;50.022;7.604;2022-11-25T05:35:22;7.20;99.90
41344;DHT22;27089;50.022;7.604;2022-11-25T05:37:49;7.20;99.90
41344;DHT22;27089;50.022;7.604;2022-11-25T05:40:16;7.20;99.90
41344;DHT22;27089;50.022;7.604;2022-11-25T05:42:43;7.30;99.90
41344;DHT22;27089;50.022;7.604;2022-11-25T05:45:10;7.20;99.90
41344;DHT22;27089;50.022;7.604;2022-11-25T05:47:37;7.30;99.90
41344;DHT22;27089;50.022;7.604;2022-11-25T05:50:05;7.30;99.90
41344;DHT22;27089;50.022;7.604;2022-11-25T05:52:34;7.40;99.90
41344;DHT22;27089;50.022;7.604;2022-11-25T05:55:01;7.40;99.90
41344;DHT22;27089;50.022;7.604;2022-11-25T05:57:28;7.40;99.90
41344;DHT22;27089;50.022;7.604;2022-11-25T05:59:55;7.40;99.90
41344;DHT22;27089;50.022;7.604;2022-11-25T06:02:22;7.50;99.90
41344;DHT22;27089;50.022;7.604;2022-11-25T06:04:49;7.50;99.90
41344;DHT22;27089;50.022;7.604;2022-11-25T06:07:16;7.50;99.90
41344;DHT22;27089;50.022;7.604;2022-11-25T06:09:44;7.50;99.90
41344;DHT22;27089;50.022;7.604;2022-11-25T06:12:11;7.60;99.90
41344;DHT22;27089;50.022;7.604;2022-11-25T06:14:38;7.60;99.90
41344;DHT22;27089;50.022;7.604;2022-11-25T06:17:05;7.60;99.90
41344;DHT22;27089;50.022;7.604;2022-11-25T06:19:32;7.60;99.90
41344;DHT22;27089;50.022;7.604;2022-11-25T06:21:59;7.60;99.90
41344;DHT22;27089;50.022;7.604;2022-11-25T06:24:26;7.60;99.90
41344;DHT22;27089;50.022;7.604;2022-11-25T06:26:54;7.60;99.90
41344;DHT22;27089;50.022;7.604;2022-11-25T06:29:21;7.60;99.90
41344;DHT22;27089;50.022;7.604;2022-11-25T06:31:48;7.60;99.90
41344;DHT22;27089;50.022;7.604;2022-11-25T06:34:15;7.60;99.90
41344;DHT22;27089;50.022;7.604;2022-11-25T06:36:42;7.50;99.90
41344;DHT22;27089;50.022;7.604;2022-11-25T06:39:09;7.50;99.90
41344;DHT22;27089;50.022;7.604;2022-11-25T06:41:36;7.60;99.90
41344;DHT22;27089;50.022;7.604;2022-11-25T06:44:05;7.60;99.90
41344;DHT22;27089;50.022;7.604;2022-11-25T06:46:31;7.50;99.90
41344;DHT22;27089;50.022;7.604;2022-11-25T06:48:59;7.50;99.90
41344;DHT22;27089;50.022;7.604;2022-11-25T06:51:26;7.50;99.90
41344;DHT22;27089;50.022;7.604;2022-11-25T06:53:52;7.50;99.90
41344;DHT22;27089;50.022;7.604;2022-11-25T06:56:21;7.50;99.90
41344;DHT22;27089;50.022;7.604;2022-11-25T06:58:48;7.50;99.90
41344;DHT22;27089;50.022;7.604;2022-11-25T07:01:19;7.40;99.90
41344;DHT22;27089;50.022;7.604;2022-11-25T07:03:48;7.50;99.90
41344;DHT22;27089;50.022;7.604;2022-11-25T07:06:16;7.50;99.90
41344;DHT22;27089;50.022;7.604;2022-11-25T07:08:43;7.40;99.90
41344;DHT22;27089;50.022;7.604;2022-11-25T07:11:15;7.40;99.90
41344;DHT22;27089;50.022;7.604;2022-11-25T07:13:42;7.40;99.90
41344;DHT22;27089;50.022;7.604;2022-11-25T07:16:10;7.40;99.90
41344;DHT22;27089;50.022;7.604;2022-11-25T07:18:39;7.40;99.90
41344;DHT22;27089;50.022;7.604;2022-11-25T07:21:08;7.40;99.90
41344;DHT22;27089;50.022;7.604;2022-11-25T07:23:36;7.40;99.90
41344;DHT22;27089;50.022;7.604;2022-11-25T07:26:05;7.40;99.90
41344;DHT22;27089;50.022;7.604;2022-11-25T07:28:33;7.40;99.90
41344;DHT22;27089;50.022;7.604;2022-11-25T07:31:04;7.40;99.90
41344;DHT22;27089;50.022;7.604;2022-11-25T07:33:32;7.40;99.90
41344;DHT22;27089;50.022;7.604;2022-11-25T07:36:02;7.40;99.90
41344;DHT22;27089;50.022;7.604;2022-11-25T07:38:29;7.40;99.90
41344;DHT22;27089;50.022;7.604;2022-11-25T07:41:02;7.40;99.90
41344;DHT22;27089;50.022;7.604;2022-11-25T07:43:29;7.40;99.90
41344;DHT22;27089;50.022;7.604;2022-11-25T07:46:07;7.50;99.90
41344;DHT22;27089;50.022;7.604;2022-11-25T07:48:34;7.50;99.90
41344;DHT22;27089;50.022;7.604;2022-11-25T07:51:03;7.50;99.90
41344;DHT22;27089;50.022;7.604;2022-11-25T07:53:30;7.50;99.90
41344;DHT22;27089;50.022;7.604;2022-11-25T07:56:00;7.50;99.90
41344;DHT22;27089;50.022;7.604;2022-11-25T07:58:27;7.50;99.90
41344;DHT22;27089;50.022;7.604;2022-11-25T08:00:54;7.60;99.90
41344;DHT22;27089;50.022;7.604;2022-11-25T08:03:21;7.50;99.90
41344;DHT22;27089;50.022;7.604;2022-11-25T08:05:48;7.50;99.90
41344;DHT22;27089;50.022;7.604;2022-11-25T08:08:16;7.60;99.90
41344;DHT22;27089;50.022;7.604;2022-11-25T08:10:43;7.60;99.90
41344;DHT22;27089;50.022;7.604;2022-11-25T08:13:10;7.60;99.90
41344;DHT22;27089;50.022;7.604;2022-11-25T08:15:37;7.60;99.90
41344;DHT22;27089;50.022;7.604;2022-11-25T08:18:04;7.60;99.90
41344;DHT22;27089;50.022;7.604;2022-11-25T08:20:31;7.60;99.90
41344;DHT22;27089;50.022;7.604;2022-11-25T08:22:58;7.70;99.90
41344;DHT22;27089;50.022;7.604;2022-11-25T08:25:26;7.70;99.90
41344;DHT22;27089;50.022;7.604;2022-11-25T08:27:54;7.70;99.90
41344;DHT22;27089;50.022;7.604;2022-11-25T08:30:21;7.70;99.90
41344;DHT22;27089;50.022;7.604;2022-11-25T08:32:50;7.80;99.90
41344;DHT22;27089;50.022;7.604;2022-11-25T08:35:18;7.80;99.90
41344;DHT22;27089;50.022;7.604;2022-11-25T08:37:45;7.80;99.90
41344;DHT22;27089;50.022;7.604;2022-11-25T08:40:12;7.80;99.90
41344;DHT22;27089;50.022;7.604;2022-11-25T08:42:41;7.80;99.90
41344;DHT22;27089;50.022;7.604;2022-11-25T08:45:10;7.80;99.90
41344;DHT22;27089;50.022;7.604;2022-11-25T08:47:37;7.90;99.90
41344;DHT22;27089;50.022;7.604;2022-11-25T08:50:06;7.90;99.90
41344;DHT22;27089;50.022;7.604;2022-11-25T08:52:34;7.90;99.90
41344;DHT22;27089;50.022;7.604;2022-11-25T08:55:01;7.90;99.90
41344;DHT22;27089;50.022;7.604;2022-11-25T08:57:28;7.90;99.90
41344;DHT22;27089;50.022;7.604;2022-11-25T08:59:56;7.90;99.90
41344;DHT22;27089;50.022;7.604;2022-11-25T09:02:23;7.90;99.90
41344;DHT22;27089;50.022;7.604;2022-11-25T09:04:51;7.90;99.90
41344;DHT22;27089;50.022;7.604;2022-11-25T09:07:18;7.90;99.90
41344;DHT22;27089;50.022;7.604;2022-11-25T09:09:45;7.90;99.90
41344;DHT22;27089;50.022;7.604;2022-11-25T09:12:12;8.00;99.90
41344;DHT22;27089;50.022;7.604;2022-11-25T09:14:39;8.00;99.90
41344;DHT22;27089;50.022;7.604;2022-11-25T09:17:09;8.00;99.90
41344;DHT22;27089;50.022;7.604;2022-11-25T09:19:37;8.10;99.90
41344;DHT22;27089;50.022;7.604;2022-11-25T09:22:04;8.10;99.90
41344;DHT22;27089;50.022;7.604;2022-11-25T09:24:31;8.20;99.90
41344;DHT22;27089;50.022;7.604;2022-11-25T09:26:58;8.30;99.90
41344;DHT22;27089;50.022;7.604;2022-11-25T09:29:25;8.30;99.90
41344;DHT22;27089;50.022;7.604;2022-11-25T09:31:52;8.40;99.90
41344;DHT22;27089;50.022;7.604;2022-11-25T09:34:20;8.40;99.90
41344;DHT22;27089;50.022;7.604;2022-11-25T09:36:47;8.40;99.90
41344;DHT22;27089;50.022;7.604;2022-11-25T09:39:14;8.50;99.90
41344;DHT22;27089;50.022;7.604;2022-11-25T09:42:00;8.50;99.90
41344;DHT22;27089;50.022;7.604;2022-11-25T09:45:00;8.50;99.90
41344;DHT22;27089;50.022;7.604;2022-11-25T09:48:11;8.50;99.90
41344;DHT22;27089;50.022;7.604;2022-11-25T09:50:52;8.50;99.90
41344;DHT22;27089;50.022;7.604;2022-11-25T09:53:34;8.50;99.90
41344;DHT22;27089;50.022;7.604;2022-11-25T09:56:09;8.50;99.90
41344;DHT22;27089;50.022;7.604;2022-11-25T09:58:41;8.50;99.90
41344;DHT22;27089;50.022;7.604;2022-11-25T10:01:14;8.50;99.90
41344;DHT22;27089;50.022;7.604;2022-11-25T10:03:44;8.50;99.90
41344;DHT22;27089;50.022;7.604;2022-11-25T10:06:16;8.50;99.90
41344;DHT22;27089;50.022;7.604;2022-11-25T10:08:48;8.60;99.90
41344;DHT22;27089;50.022;7.604;2022-11-25T10:11:25;8.60;99.90
41344;DHT22;27089;50.022;7.604;2022-11-25T10:13:57;8.60;99.90
41344;DHT22;27089;50.022;7.604;2022-11-25T10:16:37;8.60;99.90
41344;DHT22;27089;50.022;7.604;2022-11-25T10:19:12;8.60;99.90
41344;DHT22;27089;50.022;7.604;2022-11-25T10:21:42;8.60;99.90
41344;DHT22;27089;50.022;7.604;2022-11-25T10:24:12;8.60;99.90
41344;DHT22;27089;50.022;7.604;2022-11-25T10:26:43;8.60;99.90
41344;DHT22;27089;50.022;7.604;2022-11-25T10:29:29;8.70;99.90
41344;DHT22;27089;50.022;7.604;2022-11-25T10:32:01;8.80;99.90
41344;DHT22;27089;50.022;7.604;2022-11-25T10:34:35;8.90;99.90
41344;DHT22;27089;50.022;7.604;2022-11-25T10:37:11;9.00;99.90
41344;DHT22;27089;50.022;7.604;2022-11-25T10:39:40;9.20;99.90
41344;DHT22;27089;50.022;7.604;2022-11-25T10:42:14;9.40;99.90
41344;DHT22;27089;50.022;7.604;2022-11-25T10:44:44;9.50;99.90
41344;DHT22;27089;50.022;7.604;2022-11-25T10:47:25;9.70;99.90
41344;DHT22;27089;50.022;7.604;2022-11-25T10:50:03;9.90;99.90
41344;DHT22;27089;50.022;7.604;2022-11-25T10:52:36;10.00;99.90
41344;DHT22;27089;50.022;7.604;2022-11-25T10:55:10;10.00;99.90
41344;DHT22;27089;50.022;7.604;2022-11-25T10:57:38;9.90;99.90
41344;DHT22;27089;50.022;7.604;2022-11-25T11:00:07;9.90;99.90
41344;DHT22;27089;50.022;7.604;2022-11-25T11:02:38;9.90;99.90
41344;DHT22;27089;50.022;7.604;2022-11-25T11:05:17;9.80;99.90
41344;DHT22;27089;50.022;7.604;2022-11-25T11:07:46;9.70;99.90
41344;DHT22;27089;50.022;7.604;2022-11-25T11:10:20;9.70;99.90
41344;DHT22;27089;50.022;7.604;2022-11-25T11:12:56;9.60;99.90
41344;DHT22;27089;50.022;7.604;2022-11-25T11:15:25;9.70;99.90
41344;DHT22;27089;50.022;7.604;2022-11-25T11:17:53;9.70;99.90
41344;DHT22;27089;50.022;7.604;2022-11-25T11:20:23;9.80;99.90
41344;DHT22;27089;50.022;7.604;2022-11-25T11:23:01;9.80;99.90
41344;DHT22;27089;50.022;7.604;2022-11-25T11:25:32;9.80;99.90
41344;DHT22;27089;50.022;7.604;2022-11-25T11:28:00;9.80;99.90
41344;DHT22;27089;50.022;7.604;2022-11-25T11:30:31;9.90;99.90
41344;DHT22;27089;50.022;7.604;2022-11-25T11:33:01;10.00;99.90
41344;DHT22;27089;50.022;7.604;2022-11-25T11:35:46;10.10;99.90
41344;DHT22;27089;50.022;7.604;2022-11-25T11:38:27;10.10;99.90
41344;DHT22;27089;50.022;7.604;2022-11-25T11:41:10;10.00;99.90
41344;DHT22;27089;50.022;7.604;2022-11-25T11:43:51;10.00;99.90
41344;DHT22;27089;50.022;7.604;2022-11-25T11:46:32;10.20;99.90
41344;DHT22;27089;50.022;7.604;2022-11-25T11:49:14;10.20;99.90
41344;DHT22;27089;50.022;7.604;2022-11-25T11:51:50;10.30;99.90
41344;DHT22;27089;50.022;7.604;2022-11-25T11:54:27;10.30;99.90
41344;DHT22;27089;50.022;7.604;2022-11-25T11:57:00;10.30;99.90
41344;DHT22;27089;50.022;7.604;2022-11-25T11:59:44;10.30;99.90
41344;DHT22;27089;50.022;7.604;2022-11-25T12:02:24;10.20;99.90
41344;DHT22;27089;50.022;7.604;2022-11-25T12:05:05;10.10;99.90
41344;DHT22;27089;50.022;7.604;2022-11-25T12:07:43;10.20;99.90
41344;DHT22;27089;50.022;7.604;2022-11-25T12:10:19;10.20;99.90
41344;DHT22;27089;50.022;7.604;2022-11-25T12:12:51;10.30;99.90
41344;DHT22;27089;50.022;7.604;2022-11-25T12:15:23;10.30;99.90
41344;DHT22;27089;50.022;7.604;2022-11-25T12:17:57;10.30;99.90
41344;DHT22;27089;50.022;7.604;2022-11-25T12:20:36;10.30;99.90
41344;DHT22;27089;50.022;7.604;2022-11-25T12:23:10;10.30;99.90
41344;DHT22;27089;50.022;7.604;2022-11-25T12:25:41;10.40;99.90
41344;DHT22;27089;50.022;7.604;2022-11-25T12:28:11;10.60;99.90
41344;DHT22;27089;50.022;7.604;2022-11-25T12:30:50;10.70;99.90
41344;DHT22;27089;50.022;7.604;2022-11-25T12:33:25;10.80;99.90
41344;DHT22;27089;50.022;7.604;2022-11-25T12:35:57;10.80;99.90
41344;DHT22;27089;50.022;7.604;2022-11-25T12:38:36;10.80;99.90
41344;DHT22;27089;50.022;7.604;2022-11-25T12:41:15;10.90;99.90
41344;DHT22;27089;50.022;7.604;2022-11-25T12:43:47;11.00;99.90
41344;DHT22;27089;50.022;7.604;2022-11-25T12:46:24;11.00;99.90
41344;DHT22;27089;50.022;7.604;2022-11-25T12:48:56;11.00;99.90
41344;DHT22;27089;50.022;7.604;2022-11-25T12:57:49;11.20;99.90
41344;DHT22;27089;50.022;7.604;2022-11-25T13:00:19;11.20;99.90
41344;DHT22;27089;50.022;7.604;2022-11-25T13:03:24;11.10;99.90
41344;DHT22;27089;50.022;7.604;2022-11-25T13:06:06;11.00;99.90
41344;DHT22;27089;50.022;7.604;2022-11-25T13:12:04;11.00;99.90
41344;DHT22;27089;50.022;7.604;2022-11-25T13:14:59;11.10;99.90
41344;DHT22;27089;50.022;7.604;2022-11-25T13:17:28;11.20;99.90
41344;DHT22;27089;50.022;7.604;2022-11-25T13:23:01;11.20;99.90
41344;DHT22;27089;50.022;7.604;2022-11-25T13:25:28;11.20;99.90
41344;DHT22;27089;50.022;7.604;2022-11-25T13:27:56;11.10;99.90
41344;DHT22;27089;50.022;7.604;2022-11-25T13:30:37;10.90;99.90
41344;DHT22;27089;50.022;7.604;2022-11-25T13:36:16;10.70;99.90
41344;DHT22;27089;50.022;7.604;2022-11-25T13:39:04;10.60;99.90
41344;DHT22;27089;50.022;7.604;2022-11-25T13:41:39;10.60;99.90
41344;DHT22;27089;50.022;7.604;2022-11-25T13:44:21;10.60;99.90
41344;DHT22;27089;50.022;7.604;2022-11-25T13:46:53;10.60;99.90
41344;DHT22;27089;50.022;7.604;2022-11-25T13:49:26;10.70;99.90
41344;DHT22;27089;50.022;7.604;2022-11-25T13:51:56;10.60;99.90
41344;DHT22;27089;50.022;7.604;2022-11-25T13:54:26;10.70;99.90
41344;DHT22;27089;50.022;7.604;2022-11-25T13:57:00;10.60;99.90
41344;DHT22;27089;50.022;7.604;2022-11-25T13:59:49;10.50;99.90
41344;DHT22;27089;50.022;7.604;2022-11-25T14:02:36;10.40;99.90
41344;DHT22;27089;50.022;7.604;2022-11-25T14:05:35;10.20;99.90
41344;DHT22;27089;50.022;7.604;2022-11-25T14:08:14;10.00;99.90
41344;DHT22;27089;50.022;7.604;2022-11-25T14:10:50;9.90;99.90
41344;DHT22;27089;50.022;7.604;2022-11-25T14:13:49;9.80;99.90
41344;DHT22;27089;50.022;7.604;2022-11-25T14:16:42;9.70;99.90
41344;DHT22;27089;50.022;7.604;2022-11-25T14:19:32;9.60;99.90
41344;DHT22;27089;50.022;7.604;2022-11-25T14:22:18;9.50;99.90
41344;DHT22;27089;50.022;7.604;2022-11-25T14:24:50;9.50;99.90
41344;DHT22;27089;50.022;7.604;2022-11-25T14:27:21;9.40;99.90
41344;DHT22;27089;50.022;7.604;2022-11-25T14:29:52;9.20;99.90
41344;DHT22;27089;50.022;7.604;2022-11-25T14:32:23;9.10;99.90
41344;DHT22;27089;50.022;7.604;2022-11-25T14:34:56;9.00;99.90
41344;DHT22;27089;50.022;7.604;2022-11-25T14:37:28;8.90;99.90
41344;DHT22;27089;50.022;7.604;2022-11-25T14:40:02;8.80;99.90
41344;DHT22;27089;50.022;7.604;2022-11-25T14:42:34;8.80;99.90
41344;DHT22;27089;50.022;7.604;2022-11-25T14:45:02;8.80;99.90
41344;DHT22;27089;50.022;7.604;2022-11-25T14:47:30;8.70;99.90
41344;DHT22;27089;50.022;7.604;2022-11-25T14:49:59;8.70;99.90
41344;DHT22;27089;50.022;7.604;2022-11-25T14:52:30;8.70;99.90
41344;DHT22;27089;50.022;7.604;2022-11-25T14:54:59;8.70;99.90
41344;DHT22;27089;50.022;7.604;2022-11-25T14:57:29;8.60;99.90
41344;DHT22;27089;50.022;7.604;2022-11-25T15:00:05;8.60;99.90
41344;DHT22;27089;50.022;7.604;2022-11-25T15:02:35;8.50;99.90
41344;DHT22;27089;50.022;7.604;2022-11-25T15:05:15;8.50;99.90
41344;DHT22;27089;50.022;7.604;2022-11-25T15:07:54;8.40;99.90
41344;DHT22;27089;50.022;7.604;2022-11-25T15:10:39;8.30;99.90
41344;DHT22;27089;50.022;7.604;2022-11-25T15:13:13;8.20;99.90
41344;DHT22;27089;50.022;7.604;2022-11-25T15:15:45;8.20;99.90
41344;DHT22;27089;50.022;7.604;2022-11-25T15:18:17;8.20;99.90
41344;DHT22;27089;50.022;7.604;2022-11-25T15:20:48;8.20;99.90
41344;DHT22;27089;50.022;7.604;2022-11-25T15:23:24;8.20;99.90
41344;DHT22;27089;50.022;7.604;2022-11-25T15:25:52;8.20;99.90
41344;DHT22;27089;50.022;7.604;2022-11-25T15:28:19;8.20;99.90
41344;DHT22;27089;50.022;7.604;2022-11-25T15:30:57;8.30;99.90
41344;DHT22;27089;50.022;7.604;2022-11-25T15:33:26;8.30;99.90
41344;DHT22;27089;50.022;7.604;2022-11-25T15:35:55;8.20;99.90
41344;DHT22;27089;50.022;7.604;2022-11-25T15:38:40;8.20;99.90
41344;DHT22;27089;50.022;7.604;2022-11-25T15:41:28;8.20;99.90
41344;DHT22;27089;50.022;7.604;2022-11-25T15:43:59;8.10;99.90
41344;DHT22;27089;50.022;7.604;2022-11-25T15:46:27;8.10;99.90
41344;DHT22;27089;50.022;7.604;2022-11-25T15:48:57;8.00;99.90
41344;DHT22;27089;50.022;7.604;2022-11-25T15:51:36;8.00;99.90
41344;DHT22;27089;50.022;7.604;2022-11-25T15:54:13;7.90;99.90
41344;DHT22;27089;50.022;7.604;2022-11-25T15:56:44;7.80;99.90
41344;DHT22;27089;50.022;7.604;2022-11-25T16:02:34;7.60;99.90
41344;DHT22;27089;50.022;7.604;2022-11-25T16:05:24;7.50;99.90
41344;DHT22;27089;50.022;7.604;2022-11-25T16:10:50;7.50;99.90
41344;DHT22;27089;50.022;7.604;2022-11-25T16:13:32;7.50;99.90
41344;DHT22;27089;50.022;7.604;2022-11-25T16:16:13;7.60;99.90
41344;DHT22;27089;50.022;7.604;2022-11-25T16:18:43;7.60;99.90
41344;DHT22;27089;50.022;7.604;2022-11-25T16:21:16;7.60;99.90
41344;DHT22;27089;50.022;7.604;2022-11-25T16:23:48;7.60;99.90
41344;DHT22;27089;50.022;7.604;2022-11-25T16:26:19;7.70;99.90
41344;DHT22;27089;50.022;7.604;2022-11-25T16:28:52;7.70;99.90
41344;DHT22;27089;50.022;7.604;2022-11-25T16:31:19;7.70;99.90